Terminal Aerodrome Forecast
Issued by NWS Lubbock, TX

Home | Current Version | Previous Version | Text Only | Print | Product List | Glossary On
Versions: 1 2 3 4 5 6 7 8 9 10 11 12 13
384
FTUS44 KLUB 261720
TAFLBB
TAF
KLBB 261720Z 2618/2718 01007KT P6SM FEW110 SCT250
     FM270100 10008KT P6SM SCT070 SCT250=

USA.gov is the U.S. government's official web portal to all federal, state and local government web resources and services.